createdAt,value
2017-10-27T00:04:08.662Z,14.81
2017-10-27T00:06:36.974Z,14.79
2017-10-27T00:09:05.269Z,14.76
2017-10-27T00:11:33.608Z,14.73
2017-10-27T00:14:01.915Z,14.72
2017-10-27T00:16:30.213Z,14.70
2017-10-27T00:18:58.547Z,14.65
2017-10-27T00:21:26.852Z,14.64
2017-10-27T00:23:55.162Z,14.63
2017-10-27T00:26:23.484Z,14.61
2017-10-27T00:28:51.804Z,14.59
2017-10-27T00:31:20.135Z,14.58
2017-10-27T00:33:49.219Z,14.58
2017-10-27T00:36:18.299Z,14.56
2017-10-27T00:38:46.606Z,14.56
2017-10-27T00:41:14.965Z,14.53
2017-10-27T00:43:43.299Z,14.51
2017-10-27T00:46:11.678Z,14.47
2017-10-27T00:48:40.061Z,14.44
2017-10-27T00:51:08.383Z,14.42
2017-10-27T00:53:36.702Z,14.39
2017-10-27T00:56:06.682Z,14.37
2017-10-27T00:58:35.000Z,14.37
2017-10-27T01:01:03.329Z,14.37
2017-10-27T01:03:31.659Z,14.35
2017-10-27T01:06:00.759Z,14.33
2017-10-27T01:08:29.825Z,14.32
2017-10-27T01:10:58.144Z,14.30
2017-10-27T01:13:26.479Z,14.29
2017-10-27T01:15:54.803Z,14.28
2017-10-27T01:18:23.904Z,14.27
2017-10-27T01:20:53.049Z,14.26
2017-10-27T01:23:21.369Z,14.27
2017-10-27T01:25:49.686Z,14.25
2017-10-27T01:28:18.008Z,14.22
2017-10-27T01:30:46.383Z,14.21
2017-10-27T01:33:15.622Z,14.17
2017-10-27T01:35:44.704Z,14.15
2017-10-27T01:38:13.066Z,14.13
2017-10-27T01:40:41.377Z,14.11
2017-10-27T01:43:09.712Z,14.10
2017-10-27T01:45:38.034Z,14.09
2017-10-27T01:48:06.364Z,14.07
2017-10-27T01:50:34.739Z,14.07
2017-10-27T01:53:03.048Z,14.04
2017-10-27T01:55:31.352Z,14.05
2017-10-27T01:57:59.665Z,14.05
2017-10-27T02:00:28.751Z,14.05
2017-10-27T02:02:57.938Z,14.05
2017-10-27T02:05:26.271Z,14.03
2017-10-27T02:07:54.588Z,14.02
2017-10-27T02:10:22.897Z,14.00
2017-10-27T02:12:51.967Z,13.98
2017-10-27T02:15:20.295Z,13.96
2017-10-27T02:17:48.619Z,13.94
2017-10-27T02:20:16.917Z,13.92
2017-10-27T02:22:45.229Z,13.90
2017-10-27T02:25:13.560Z,13.89
2017-10-27T02:27:41.869Z,13.87
2017-10-27T02:30:10.187Z,13.87
2017-10-27T02:32:38.495Z,13.85
2017-10-27T02:35:06.812Z,13.82
2017-10-27T02:37:35.128Z,13.80
2017-10-27T02:40:03.446Z,13.78
2017-10-27T02:42:31.774Z,13.76
2017-10-27T02:45:00.094Z,13.76
2017-10-27T02:47:28.408Z,13.76
2017-10-27T02:49:56.738Z,13.74
2017-10-27T02:52:25.074Z,13.71
2017-10-27T02:54:53.413Z,13.69
2017-10-27T02:57:21.748Z,13.68
2017-10-27T02:59:50.856Z,13.65
2017-10-27T03:02:19.936Z,13.63
2017-10-27T03:04:49.032Z,13.62
2017-10-27T03:07:17.356Z,13.59
2017-10-27T03:09:45.684Z,13.55
2017-10-27T03:12:14.023Z,13.53
2017-10-27T03:14:42.322Z,13.52
2017-10-27T03:17:10.626Z,13.52
2017-10-27T03:19:38.965Z,13.51
2017-10-27T03:22:07.291Z,13.50
2017-10-27T03:24:35.635Z,13.50
2017-10-27T03:27:03.939Z,13.51
2017-10-27T03:29:32.252Z,13.51
2017-10-27T03:32:00.586Z,13.50
2017-10-27T03:34:28.918Z,13.52
2017-10-27T03:36:57.233Z,13.55
2017-10-27T03:39:25.552Z,13.57
2017-10-27T03:41:53.888Z,13.59
2017-10-27T03:44:22.204Z,13.58
2017-10-27T03:46:51.314Z,13.54
2017-10-27T03:49:19.659Z,13.52
2017-10-27T03:51:48.677Z,13.48
2017-10-27T03:54:16.997Z,13.45
2017-10-27T03:56:45.431Z,13.42
2017-10-27T03:59:13.751Z,13.39
2017-10-27T04:01:42.386Z,13.36
2017-10-27T04:04:10.719Z,13.31
2017-10-27T04:06:39.037Z,13.27
2017-10-27T04:09:07.339Z,13.24
2017-10-27T04:11:35.665Z,13.21
2017-10-27T04:14:03.970Z,13.17
2017-10-27T04:16:32.299Z,13.15
2017-10-27T04:19:00.618Z,13.14
2017-10-27T04:21:29.701Z,13.12
2017-10-27T04:23:58.013Z,13.13
2017-10-27T04:26:26.341Z,13.14
2017-10-27T04:28:54.677Z,13.15
2017-10-27T04:31:23.765Z,13.15
2017-10-27T04:33:52.843Z,13.14
2017-10-27T04:36:21.152Z,13.13
2017-10-27T04:38:49.477Z,13.12
2017-10-27T04:41:17.801Z,13.13
2017-10-27T04:43:46.893Z,13.12
2017-10-27T04:46:16.061Z,13.12
2017-10-27T04:48:44.433Z,13.12
2017-10-27T04:51:12.752Z,13.12
2017-10-27T04:53:41.058Z,13.12
2017-10-27T04:56:10.153Z,13.12
2017-10-27T04:58:39.252Z,13.13
2017-10-27T05:01:08.335Z,13.14
2017-10-27T05:03:36.663Z,13.15
2017-10-27T05:06:04.981Z,13.16
2017-10-27T05:08:33.316Z,13.16
2017-10-27T05:11:01.628Z,13.14
2017-10-27T05:13:29.957Z,13.13
2017-10-27T05:15:59.074Z,13.13
2017-10-27T05:18:32.827Z,13.13
2017-10-27T05:21:06.655Z,13.12
2017-10-27T05:23:41.325Z,13.15
2017-10-27T05:26:09.668Z,13.18
2017-10-27T05:28:37.997Z,13.20
2017-10-27T05:31:06.309Z,13.21
2017-10-27T05:33:34.613Z,13.23
2017-10-27T05:36:03.675Z,13.24
2017-10-27T05:38:32.022Z,13.24
2017-10-27T05:41:02.026Z,13.24
2017-10-27T05:43:31.263Z,13.23
2017-10-27T05:45:59.587Z,13.24
2017-10-27T05:48:27.881Z,13.22
2017-10-27T05:50:56.941Z,13.21
2017-10-27T05:53:25.252Z,13.18
2017-10-27T05:55:53.569Z,13.14
2017-10-27T05:58:21.951Z,13.12
2017-10-27T06:00:50.267Z,13.10
2017-10-27T06:03:18.585Z,13.07
2017-10-27T06:05:47.671Z,13.05
2017-10-27T06:08:15.970Z,13.03
2017-10-27T06:10:45.046Z,13.02
2017-10-27T06:13:13.356Z,12.99
2017-10-27T06:15:41.688Z,12.97
2017-10-27T06:18:10.149Z,12.95
2017-10-27T06:20:38.470Z,12.93
2017-10-27T06:23:06.818Z,12.91
2017-10-27T06:25:35.158Z,12.90
2017-10-27T06:28:04.236Z,12.89
2017-10-27T06:30:32.557Z,12.87
2017-10-27T06:33:00.879Z,12.88
2017-10-27T06:35:29.225Z,12.90
2017-10-27T06:37:57.541Z,12.90
2017-10-27T06:40:25.853Z,12.89
2017-10-27T06:42:54.952Z,12.92
2017-10-27T06:45:23.276Z,12.94
2017-10-27T06:47:51.598Z,12.98
2017-10-27T06:50:19.920Z,13.03
2017-10-27T06:52:48.969Z,13.10
2017-10-27T06:55:17.280Z,13.15
2017-10-27T06:57:46.992Z,13.15
2017-10-27T07:00:16.086Z,13.09
2017-10-27T07:02:45.197Z,13.04
2017-10-27T07:05:13.523Z,13.03
2017-10-27T07:07:41.879Z,13.02
2017-10-27T07:10:10.196Z,13.03
2017-10-27T07:12:38.526Z,13.03
2017-10-27T07:15:06.845Z,13.09
2017-10-27T07:17:35.163Z,13.16
2017-10-27T07:20:04.426Z,13.25
2017-10-27T07:22:32.973Z,13.27
2017-10-27T07:25:01.285Z,13.21
2017-10-27T07:27:29.607Z,13.13
2017-10-27T07:29:57.932Z,13.04
2017-10-27T07:32:26.366Z,12.95
2017-10-27T07:34:54.681Z,12.87
2017-10-27T07:37:22.996Z,12.83
2017-10-27T07:39:51.335Z,12.78
2017-10-27T07:42:20.458Z,12.75
2017-10-27T07:44:48.778Z,12.73
2017-10-27T07:47:17.093Z,12.71
2017-10-27T07:49:46.185Z,12.71
2017-10-27T07:52:14.571Z,12.73
2017-10-27T07:54:43.677Z,12.75
2017-10-27T07:57:12.771Z,12.77
2017-10-27T07:59:41.862Z,12.82
2017-10-27T08:02:10.173Z,12.87
2017-10-27T08:04:38.499Z,12.93
2017-10-27T08:07:06.849Z,12.99
2017-10-27T08:09:35.187Z,13.04
2017-10-27T08:12:04.290Z,13.12
2017-10-27T08:14:33.387Z,13.27
2017-10-27T08:17:02.539Z,13.39
2017-10-27T08:19:30.851Z,13.49
2017-10-27T08:21:59.216Z,13.51
2017-10-27T08:24:27.549Z,13.53
2017-10-27T08:26:55.915Z,13.55
2017-10-27T08:29:24.979Z,13.62
2017-10-27T08:31:53.297Z,13.72
2017-10-27T08:34:22.532Z,13.79
2017-10-27T08:36:50.921Z,13.85
2017-10-27T08:39:19.234Z,13.88
2017-10-27T08:41:53.612Z,13.90
2017-10-27T08:44:21.947Z,13.95
2017-10-27T08:46:50.282Z,14.04
2017-10-27T08:49:18.785Z,14.14
2017-10-27T08:51:48.363Z,14.23
2017-10-27T08:54:16.726Z,14.35
2017-10-27T08:56:45.814Z,14.40
2017-10-27T08:59:14.901Z,14.36
2017-10-27T09:01:43.999Z,14.38
2017-10-27T09:04:12.339Z,14.42
2017-10-27T09:06:40.674Z,14.51
2017-10-27T09:09:09.765Z,14.58
2017-10-27T09:11:38.094Z,14.58
2017-10-27T09:14:06.414Z,14.59
2017-10-27T09:16:34.756Z,14.59
2017-10-27T09:19:03.083Z,14.61
2017-10-27T09:21:32.756Z,14.66
2017-10-27T09:24:01.106Z,14.72
2017-10-27T09:26:29.446Z,14.78
2017-10-27T09:28:57.765Z,14.76
2017-10-27T09:31:26.088Z,14.77
2017-10-27T09:33:54.420Z,14.82
2017-10-27T09:36:23.486Z,14.87
2017-10-27T09:38:51.807Z,14.98
2017-10-27T09:41:20.902Z,15.00
2017-10-27T09:43:49.982Z,14.85
2017-10-27T09:46:18.298Z,14.72
2017-10-27T09:48:46.638Z,14.59
2017-10-27T09:51:14.962Z,14.52
2017-10-27T09:53:43.274Z,14.47
2017-10-27T09:56:11.593Z,14.40
2017-10-27T09:58:39.912Z,14.30
2017-10-27T10:01:08.245Z,14.27
2017-10-27T10:03:36.558Z,14.29
2017-10-27T10:06:05.639Z,14.35
2017-10-27T10:08:33.996Z,14.42
2017-10-27T10:11:02.323Z,14.50
2017-10-27T10:13:30.660Z,14.57
2017-10-27T10:15:59.042Z,14.65
2017-10-27T10:18:27.385Z,14.73
2017-10-27T10:20:55.703Z,14.85
2017-10-27T10:23:24.025Z,14.97
2017-10-27T10:25:53.121Z,15.09
2017-10-27T10:28:22.184Z,15.25
2017-10-27T10:30:50.498Z,15.42
2017-10-27T10:33:19.598Z,15.55
2017-10-27T10:35:53.422Z,15.69
2017-10-27T10:38:22.005Z,15.79
2017-10-27T10:40:50.303Z,15.62
2017-10-27T10:43:18.685Z,15.33
2017-10-27T10:45:47.002Z,15.13
2017-10-27T10:48:15.314Z,15.02
2017-10-27T10:50:44.478Z,14.97
2017-10-27T10:53:12.801Z,15.01
2017-10-27T10:55:41.891Z,15.07
2017-10-27T10:58:10.970Z,15.09
2017-10-27T11:00:39.340Z,15.17
2017-10-27T11:03:07.668Z,15.33
2017-10-27T11:05:36.748Z,15.43
2017-10-27T11:08:05.094Z,15.52
2017-10-27T11:10:33.409Z,15.63
2017-10-27T11:13:01.728Z,15.75
2017-10-27T11:15:30.037Z,15.82
2017-10-27T11:17:58.358Z,15.84
2017-10-27T11:20:27.427Z,15.81
2017-10-27T11:22:55.751Z,15.82
2017-10-27T11:25:24.831Z,15.90
2017-10-27T11:27:53.146Z,16.11
2017-10-27T11:30:21.478Z,16.30
2017-10-27T11:32:50.608Z,16.37
2017-10-27T11:35:19.147Z,16.32
2017-10-27T11:37:47.470Z,16.25
2017-10-27T11:40:16.619Z,16.15
2017-10-27T11:42:44.955Z,16.11
2017-10-27T11:45:13.409Z,16.09
2017-10-27T11:47:41.748Z,16.12
2017-10-27T11:50:10.072Z,16.14
2017-10-27T11:52:38.386Z,16.21
2017-10-27T11:55:07.474Z,16.26
2017-10-27T11:57:36.569Z,16.36
2017-10-27T12:00:04.877Z,16.40
2017-10-27T12:02:33.276Z,16.42
2017-10-27T12:05:01.592Z,16.48
2017-10-27T12:07:29.960Z,16.57
2017-10-27T12:09:58.310Z,16.66
2017-10-27T12:12:26.683Z,16.72
2017-10-27T12:14:54.989Z,16.75
2017-10-27T12:17:23.321Z,16.84
2017-10-27T12:19:51.655Z,16.96
2017-10-27T12:22:19.989Z,17.01
2017-10-27T12:24:49.088Z,16.96
2017-10-27T12:27:17.394Z,16.86
2017-10-27T12:29:45.716Z,16.82
2017-10-27T12:32:14.021Z,16.78
2017-10-27T12:34:42.324Z,16.76
2017-10-27T12:37:11.403Z,16.73
2017-10-27T12:39:39.706Z,16.66
2017-10-27T12:42:08.924Z,16.59
2017-10-27T12:44:37.281Z,16.48
2017-10-27T12:47:07.030Z,16.42
2017-10-27T12:49:35.358Z,16.36
2017-10-27T12:52:04.469Z,16.39
2017-10-27T12:54:32.783Z,16.41
2017-10-27T12:57:01.095Z,16.48
2017-10-27T12:59:29.438Z,16.56
2017-10-27T13:01:57.779Z,16.57
2017-10-27T13:04:26.089Z,16.59
2017-10-27T13:06:55.288Z,16.66
2017-10-27T13:09:24.375Z,16.74
2017-10-27T13:11:52.710Z,16.82
2017-10-27T13:14:21.031Z,16.79
2017-10-27T13:16:49.352Z,16.71
2017-10-27T13:19:17.750Z,16.72
2017-10-27T13:21:46.084Z,16.72
2017-10-27T13:24:14.385Z,16.75
2017-10-27T13:26:42.701Z,16.73
2017-10-27T13:29:10.996Z,16.74
2017-10-27T13:31:39.307Z,16.77
2017-10-27T13:34:07.622Z,16.86
2017-10-27T13:36:35.956Z,16.88
2017-10-27T13:39:04.261Z,16.81
2017-10-27T13:41:33.338Z,16.76
2017-10-27T13:44:01.673Z,16.69
2017-10-27T13:46:29.988Z,16.52
2017-10-27T13:48:58.397Z,16.38
2017-10-27T13:51:26.772Z,16.35
2017-10-27T13:53:55.086Z,16.29
2017-10-27T13:56:23.418Z,16.30
2017-10-27T13:58:52.524Z,16.33
2017-10-27T14:01:20.889Z,16.36
2017-10-27T14:03:49.248Z,16.33
2017-10-27T14:06:17.572Z,16.33
2017-10-27T14:08:45.892Z,16.38
2017-10-27T14:11:14.208Z,16.41
2017-10-27T14:13:42.524Z,16.40
2017-10-27T14:16:10.840Z,16.43
2017-10-27T14:18:39.172Z,16.42
2017-10-27T14:21:08.038Z,16.46
2017-10-27T14:23:36.387Z,16.45
2017-10-27T14:26:05.466Z,16.42
2017-10-27T14:28:35.878Z,16.33
2017-10-27T14:31:04.270Z,16.22
2017-10-27T14:33:32.597Z,16.21
2017-10-27T14:36:00.918Z,16.16
2017-10-27T14:38:29.224Z,16.11
2017-10-27T14:40:58.300Z,16.05
2017-10-27T14:43:26.629Z,15.98
2017-10-27T14:45:54.949Z,16.00
2017-10-27T14:48:23.264Z,16.02
2017-10-27T14:50:52.376Z,16.00
2017-10-27T14:53:21.439Z,15.99
2017-10-27T14:55:49.755Z,15.98
2017-10-27T14:58:18.134Z,15.94
2017-10-27T15:00:47.300Z,15.90
2017-10-27T15:03:16.670Z,15.84
2017-10-27T15:05:44.984Z,15.82
2017-10-27T15:08:13.300Z,15.79
2017-10-27T15:10:42.376Z,15.73
2017-10-27T15:13:15.968Z,15.73
2017-10-27T15:15:44.293Z,15.73
2017-10-27T15:18:13.365Z,15.72
2017-10-27T15:20:41.696Z,15.68
2017-10-27T15:23:10.011Z,15.68
2017-10-27T15:25:38.351Z,15.66
2017-10-27T15:28:06.664Z,15.65
2017-10-27T15:30:35.008Z,15.60
2017-10-27T15:33:03.331Z,15.53
2017-10-27T15:35:31.642Z,15.44
2017-10-27T15:38:00.767Z,15.43
2017-10-27T15:40:29.073Z,15.40
2017-10-27T15:42:57.382Z,15.38
2017-10-27T15:45:28.753Z,15.39
2017-10-27T15:48:08.571Z,15.38
2017-10-27T15:50:36.897Z,15.36
2017-10-27T15:53:06.361Z,15.33
2017-10-27T15:55:40.437Z,15.30
2017-10-27T15:58:13.785Z,15.22
2017-10-27T16:00:44.808Z,15.16
2017-10-27T16:03:15.332Z,15.12
2017-10-27T16:05:43.709Z,15.07
2017-10-27T16:08:12.049Z,15.03
2017-10-27T16:13:21.083Z,14.98
2017-10-27T16:15:50.207Z,14.95
2017-10-27T16:18:18.530Z,14.88
2017-10-27T16:20:47.612Z,14.81
2017-10-27T16:23:15.947Z,14.77
2017-10-27T16:25:45.027Z,14.76
2017-10-27T16:28:13.372Z,14.76
2017-10-27T16:30:41.676Z,14.76
2017-10-27T16:33:09.997Z,14.75
2017-10-27T16:35:38.306Z,14.78
2017-10-27T16:38:06.625Z,14.86
2017-10-27T16:40:34.991Z,14.89
2017-10-27T16:43:03.296Z,14.95
2017-10-27T16:45:31.613Z,14.94
2017-10-27T16:47:59.933Z,14.83
2017-10-27T16:50:30.206Z,14.72
2017-10-27T16:52:58.545Z,14.69
2017-10-27T16:55:26.860Z,14.59
2017-10-27T16:57:55.940Z,14.58
2017-10-27T17:00:24.245Z,14.56
2017-10-27T17:02:53.342Z,14.59
2017-10-27T17:05:21.678Z,14.60
2017-10-27T17:07:49.997Z,14.64
2017-10-27T17:10:19.065Z,14.62
2017-10-27T17:12:47.475Z,14.61
2017-10-27T17:15:16.581Z,14.63
2017-10-27T17:17:45.647Z,14.64
2017-10-27T17:20:13.957Z,14.60
2017-10-27T17:22:43.060Z,14.61
2017-10-27T17:25:12.197Z,14.61
2017-10-27T17:27:40.526Z,14.60
2017-10-27T17:30:08.854Z,14.57
2017-10-27T17:32:37.243Z,14.57
2017-10-27T17:35:05.564Z,14.59
2017-10-27T17:37:33.873Z,14.60
2017-10-27T17:40:02.971Z,14.58
2017-10-27T17:42:32.680Z,14.56
2017-10-27T17:45:01.832Z,14.53
2017-10-27T17:47:30.207Z,14.48
2017-10-27T17:49:58.523Z,14.50
2017-10-27T17:52:26.844Z,14.52
2017-10-27T17:54:55.151Z,14.56
2017-10-27T17:57:23.509Z,14.55
2017-10-27T17:59:51.816Z,14.52
2017-10-27T18:02:20.158Z,14.49
2017-10-27T18:04:48.483Z,14.50
2017-10-27T18:07:16.861Z,14.47
2017-10-27T18:09:45.210Z,14.44
2017-10-27T18:12:13.540Z,14.41
2017-10-27T18:14:41.891Z,14.42
2017-10-27T18:17:10.223Z,14.43
2017-10-27T18:19:38.554Z,14.42
2017-10-27T18:22:06.884Z,14.39
2017-10-27T18:24:35.239Z,14.37
2017-10-27T18:27:03.638Z,14.33
2017-10-27T18:29:31.969Z,14.28
2017-10-27T18:32:00.289Z,14.25
2017-10-27T18:34:28.689Z,14.23
2017-10-27T18:36:57.035Z,14.21
2017-10-27T18:39:25.361Z,14.19
2017-10-27T18:41:53.659Z,14.16
2017-10-27T18:44:22.881Z,14.14
2017-10-27T18:46:51.211Z,14.12
2017-10-27T18:49:19.523Z,14.10
2017-10-27T18:51:48.592Z,14.05
2017-10-27T18:54:16.889Z,14.02
2017-10-27T18:56:46.034Z,13.98
2017-10-27T18:59:14.412Z,13.96
2017-10-27T19:01:43.496Z,13.94
2017-10-27T19:04:12.642Z,13.94
2017-10-27T19:06:41.221Z,13.99
2017-10-27T19:09:09.545Z,14.02
2017-10-27T19:11:38.614Z,14.03
2017-10-27T19:14:06.933Z,14.07
2017-10-27T19:16:36.015Z,14.09
2017-10-27T19:19:04.325Z,14.14
2017-10-27T19:21:32.727Z,14.16
2017-10-27T19:24:01.120Z,14.17
2017-10-27T19:26:29.955Z,14.16
2017-10-27T19:28:58.485Z,14.18
2017-10-27T19:31:26.804Z,14.18
2017-10-27T19:33:55.114Z,14.20
2017-10-27T19:36:24.214Z,14.18
2017-10-27T19:38:53.305Z,14.19
2017-10-27T19:41:22.392Z,14.19
2017-10-27T19:43:50.708Z,14.21
2017-10-27T19:46:19.031Z,14.21
2017-10-27T19:48:47.352Z,14.20
2017-10-27T19:51:16.428Z,14.16
2017-10-27T19:53:44.746Z,14.10
2017-10-27T19:56:13.090Z,14.05
2017-10-27T19:58:42.173Z,14.04
2017-10-27T20:01:10.490Z,14.03
2017-10-27T20:03:39.631Z,14.04
2017-10-27T20:06:07.984Z,14.08
2017-10-27T20:08:36.331Z,14.04
2017-10-27T20:11:04.664Z,14.05
2017-10-27T20:13:32.993Z,14.06
2017-10-27T20:16:01.407Z,14.07
2017-10-27T20:18:30.509Z,14.09
2017-10-27T20:20:59.591Z,14.06
2017-10-27T20:23:27.988Z,14.04
2017-10-27T20:25:57.079Z,14.02
2017-10-27T20:28:26.703Z,13.98
2017-10-27T20:30:55.007Z,13.96
2017-10-27T20:33:23.326Z,13.94
2017-10-27T20:35:51.722Z,13.92
2017-10-27T20:38:20.058Z,13.90
2017-10-27T20:40:48.392Z,13.86
2017-10-27T20:43:16.698Z,13.82
2017-10-27T20:45:44.999Z,13.78
2017-10-27T20:48:13.304Z,13.77
2017-10-27T20:50:41.625Z,13.76
2017-10-27T20:53:09.977Z,13.77
2017-10-27T20:55:38.333Z,13.76
2017-10-27T20:58:06.647Z,13.73
2017-10-27T21:00:35.109Z,13.73
2017-10-27T21:03:05.073Z,13.72
2017-10-27T21:05:34.147Z,13.69
2017-10-27T21:08:02.513Z,13.68
2017-10-27T21:10:30.866Z,13.67
2017-10-27T21:13:00.618Z,13.64
2017-10-27T21:15:30.056Z,13.61
2017-10-27T21:17:59.158Z,13.58
2017-10-27T21:20:28.233Z,13.59
2017-10-27T21:22:56.560Z,13.59
2017-10-27T21:25:24.909Z,13.58
2017-10-27T21:27:54.059Z,13.58
2017-10-27T21:30:22.367Z,13.56
2017-10-27T21:32:50.687Z,13.55
2017-10-27T21:35:19.003Z,13.52
2017-10-27T21:37:47.321Z,13.49
2017-10-27T21:40:15.638Z,13.46
2017-10-27T21:42:43.979Z,13.45
2017-10-27T21:45:12.286Z,13.45
2017-10-27T21:47:41.381Z,13.45
2017-10-27T21:50:10.453Z,13.46
2017-10-27T21:52:38.773Z,13.48
2017-10-27T21:55:07.962Z,13.52
2017-10-27T21:57:37.056Z,13.53
2017-10-27T22:00:06.129Z,13.53
2017-10-27T22:02:34.468Z,13.52
2017-10-27T22:05:02.796Z,13.52
2017-10-27T22:07:31.113Z,13.53
2017-10-27T22:09:59.437Z,13.54
2017-10-27T22:12:27.784Z,13.55
2017-10-27T22:14:56.093Z,13.57
2017-10-27T22:17:24.429Z,13.58
2017-10-27T22:19:52.754Z,13.58
2017-10-27T22:22:21.067Z,13.61
2017-10-27T22:24:49.390Z,13.62
2017-10-27T22:27:17.794Z,13.63
2017-10-27T22:29:46.097Z,13.65
2017-10-27T22:32:14.431Z,13.67
2017-10-27T22:34:42.737Z,13.70
2017-10-27T22:37:11.047Z,13.70
2017-10-27T22:39:39.361Z,13.70
2017-10-27T22:42:08.481Z,13.70
2017-10-27T22:44:36.793Z,13.70
2017-10-27T22:47:05.122Z,13.70
2017-10-27T22:49:34.219Z,13.72
2017-10-27T22:52:02.550Z,13.71
2017-10-27T22:54:30.873Z,13.73
2017-10-27T22:56:59.957Z,13.74
2017-10-27T22:59:29.051Z,13.74
2017-10-27T23:01:57.397Z,13.75
2017-10-27T23:04:25.725Z,13.76
2017-10-27T23:06:54.821Z,13.74
2017-10-27T23:09:23.979Z,13.71
2017-10-27T23:11:52.314Z,13.71
2017-10-27T23:14:21.449Z,13.71
2017-10-27T23:16:49.774Z,13.71
2017-10-27T23:19:18.118Z,13.71
2017-10-27T23:21:46.426Z,13.72
2017-10-27T23:24:14.763Z,13.74
2017-10-27T23:26:43.083Z,13.76
2017-10-27T23:29:11.388Z,13.75
2017-10-27T23:31:40.479Z,13.73
2017-10-27T23:34:08.796Z,13.74
2017-10-27T23:36:37.094Z,13.73
2017-10-27T23:39:05.410Z,13.73
2017-10-27T23:41:33.717Z,13.72
2017-10-27T23:44:02.016Z,13.73
2017-10-27T23:46:30.333Z,13.74
2017-10-27T23:48:58.663Z,13.73
2017-10-27T23:51:27.721Z,13.68
2017-10-27T23:53:56.076Z,13.67
2017-10-27T23:56:24.381Z,13.66
2017-10-27T23:58:52.688Z,13.66
